Time;durP1;ratioP1;P1;durP2;ratioP2;P2;SDS_P1;SDS_P2;PMS_P1;PMS_P2;Temp;Humidity;BMP_temperature;BMP_pressure;BME280_temperature;BME280_humidity;BME280_pressure;Samples;Min_cycle;Max_cycle;Signal;HPM_P1;HPM_P2
2023/01/30 04:01:11;;;;;;;6.80;6.00;;;-1.00;85.90;;;;;;5771588;23;20521;-70
2023/01/30 04:03:38;;;;;;;7.10;6.17;;;-1.00;86.10;;;;;;4957369;29;20868;-68
2023/01/30 04:06:04;;;;;;;6.00;5.50;;;-1.00;86.10;;;;;;4956717;29;20841;-67
2023/01/30 04:08:31;;;;;;;7.30;6.60;;;-1.30;86.60;;;;;;4957002;29;20443;-67
2023/01/30 04:10:58;;;;;;;6.30;5.70;;;-1.20;87.30;;;;;;4956581;29;21054;-68
2023/01/30 04:13:24;;;;;;;7.83;7.13;;;-1.20;87.00;;;;;;4957273;29;20940;-67
2023/01/30 04:15:51;;;;;;;5.53;5.03;;;-1.10;87.20;;;;;;4956752;29;21004;-68
2023/01/30 04:18:19;;;;;;;5.97;4.97;;;-1.00;86.80;;;;;;4956802;29;20454;-67
2023/01/30 04:20:46;;;;;;;5.67;5.07;;;-0.90;86.40;;;;;;4956306;29;20911;-67
2023/01/30 04:23:12;;;;;;;7.07;6.43;;;-0.90;86.10;;;;;;4956778;29;20870;-71
2023/01/30 04:25:39;;;;;;;6.73;5.73;;;-0.80;86.00;;;;;;4956391;29;20458;-68
2023/01/30 04:28:06;;;;;;;6.53;5.93;;;-0.70;86.10;;;;;;4956589;29;20452;-68
2023/01/30 04:30:32;;;;;;;6.20;5.53;;;-0.70;85.60;;;;;;4956343;29;20544;-68
2023/01/30 04:32:59;;;;;;;6.67;6.07;;;-0.70;85.70;;;;;;4956524;29;20462;-67
2023/01/30 04:35:27;;;;;;;7.10;6.40;;;-0.70;85.50;;;;;;4956165;29;20455;-67
2023/01/30 04:37:53;;;;;;;7.60;6.20;;;-0.80;85.60;;;;;;4956190;29;20451;-68
2023/01/30 04:40:20;;;;;;;6.80;5.60;;;-0.80;85.80;;;;;;4956055;29;20447;-69
2023/01/30 04:42:47;;;;;;;8.33;5.33;;;-0.80;85.80;;;;;;4956764;29;20484;-68
2023/01/30 04:45:14;;;;;;;5.63;5.03;;;-0.70;85.70;;;;;;4956097;29;20447;-68
2023/01/30 04:47:40;;;;;;;6.43;5.73;;;-0.60;85.40;;;;;;4956110;29;20506;-68
2023/01/30 04:50:08;;;;;;;6.70;6.00;;;-0.50;85.30;;;;;;4955994;29;20490;-68
2023/01/30 04:52:36;;;;;;;7.27;6.57;;;-0.50;84.70;;;;;;4956037;28;20654;-68
2023/01/30 04:55:03;;;;;;;6.20;5.60;;;-0.60;84.70;;;;;;4955982;29;20451;-68
2023/01/30 04:57:30;;;;;;;5.07;4.57;;;-0.50;85.00;;;;;;4955068;28;20510;-68
2023/01/30 04:59:56;;;;;;;5.40;4.90;;;-0.50;84.70;;;;;;4956077;29;20447;-68
2023/01/30 05:02:23;;;;;;;5.03;4.10;;;-0.50;84.90;;;;;;4955493;29;20498;-68
2023/01/30 05:04:50;;;;;;;5.57;5.07;;;-0.40;84.60;;;;;;4955791;29;20498;-68
2023/01/30 05:07:16;;;;;;;5.60;5.10;;;-0.40;84.50;;;;;;4955492;29;21015;-68
2023/01/30 05:09:44;;;;;;;5.37;4.80;;;-0.40;83.90;;;;;;4955803;29;20455;-68
2023/01/30 05:12:11;;;;;;;4.93;4.43;;;-0.40;84.30;;;;;;4955620;29;20471;-67
2023/01/30 05:14:40;;;;;;;6.90;5.57;;;-0.30;83.40;;;;;;4955723;29;20501;-68
2023/01/30 05:17:06;;;;;;;5.50;5.00;;;-0.40;83.80;;;;;;4955325;29;21085;-69
2023/01/30 05:19:33;;;;;;;5.70;5.20;;;-0.40;83.80;;;;;;4955496;29;20514;-68
2023/01/30 05:22:00;;;;;;;5.33;4.83;;;-0.50;84.20;;;;;;4955604;29;20495;-67
2023/01/30 05:24:26;;;;;;;5.73;4.90;;;-0.60;84.40;;;;;;4955422;29;20447;-68
2023/01/30 05:26:54;;;;;;;5.97;5.37;;;-0.60;84.70;;;;;;4956973;29;20470;-68
2023/01/30 05:29:21;;;;;;;5.60;5.10;;;-0.60;85.00;;;;;;4956023;29;20502;-67
2023/01/30 05:31:48;;;;;;;5.73;4.90;;;-0.60;85.10;;;;;;4955539;29;20989;-68
2023/01/30 05:34:14;;;;;;;6.43;5.10;;;-0.60;85.10;;;;;;4955929;29;20483;-68
2023/01/30 05:36:41;;;;;;;5.23;4.80;;;-0.50;85.00;;;;;;4955986;29;20455;-68
2023/01/30 05:39:08;;;;;;;5.00;4.37;;;-0.50;84.60;;;;;;4955908;29;20459;-68
2023/01/30 05:41:34;;;;;;;6.17;4.77;;;-0.50;84.60;;;;;;4955515;29;21087;-67
2023/01/30 05:44:03;;;;;;;6.27;5.67;;;-0.50;84.70;;;;;;4956059;29;20474;-68
2023/01/30 05:46:29;;;;;;;6.47;5.93;;;-0.40;85.20;;;;;;4956340;29;20458;-68
2023/01/30 05:48:56;;;;;;;5.67;4.93;;;-0.30;84.20;;;;;;4956255;29;20454;-68
2023/01/30 05:51:24;;;;;;;5.30;4.80;;;-0.30;84.00;;;;;;4955930;29;20463;-69
2023/01/30 05:53:52;;;;;;;7.00;5.27;;;-0.40;84.00;;;;;;4956529;29;20455;-69
2023/01/30 05:56:19;;;;;;;5.33;4.83;;;-0.30;84.00;;;;;;4956209;29;20455;-68
2023/01/30 05:58:50;;;;;;;5.30;4.80;;;-0.30;83.90;;;;;;4955443;28;20976;-68
2023/01/30 06:01:18;;;;;;;6.87;5.93;;;-0.20;84.00;;;;;;4955654;28;20495;-68
2023/01/30 06:03:45;;;;;;;4.63;4.23;;;-0.10;83.60;;;;;;4955977;29;20506;-68
2023/01/30 06:06:13;;;;;;;6.50;5.47;;;-0.10;82.90;;;;;;4956111;29;20455;-68
2023/01/30 06:08:40;;;;;;;6.23;4.37;;;0.00;82.90;;;;;;4957312;28;20447;-69
2023/01/30 06:11:08;;;;;;;4.60;4.20;;;0.10;82.40;;;;;;4959901;29;20464;-69
2023/01/30 06:13:36;;;;;;;5.57;4.67;;;0.10;82.50;;;;;;4959743;29;20493;-68
2023/01/30 06:16:03;;;;;;;6.47;5.20;;;0.00;81.80;;;;;;4959558;29;20451;-68
2023/01/30 06:18:30;;;;;;;4.93;4.43;;;0.10;82.40;;;;;;4959879;29;20455;-67
2023/01/30 06:20:57;;;;;;;5.93;5.40;;;0.10;82.00;;;;;;4958876;29;20914;-68
2023/01/30 06:23:24;;;;;;;5.33;4.83;;;0.00;82.30;;;;;;4958882;29;20948;-69
2023/01/30 06:25:52;;;;;;;6.17;5.23;;;0.00;82.80;;;;;;4958998;29;20454;-68
2023/01/30 06:28:20;;;;;;;5.17;4.50;;;0.10;82.40;;;;;;4959832;29;20458;-68
2023/01/30 06:30:46;;;;;;;5.53;4.97;;;0.00;82.40;;;;;;4960100;29;20474;-68
2023/01/30 06:33:13;;;;;;;6.17;5.57;;;-0.20;82.90;;;;;;4962273;29;20458;-68
2023/01/30 06:35:42;;;;;;;6.30;5.70;;;-0.20;83.50;;;;;;4961818;29;20510;-68
2023/01/30 06:38:12;;;;;;;5.23;4.73;;;-0.20;83.20;;;;;;4960600;29;20454;-69
2023/01/30 06:40:38;;;;;;;7.37;5.13;;;-0.20;83.50;;;;;;4958377;29;20557;-68
2023/01/30 06:43:05;;;;;;;5.23;4.73;;;0.00;83.60;;;;;;4958466;29;20451;-68
2023/01/30 06:45:32;;;;;;;6.03;5.43;;;-0.10;83.00;;;;;;4958520;29;20451;-68
2023/01/30 06:47:59;;;;;;;5.53;5.00;;;-0.10;83.50;;;;;;4959348;29;20447;-69
2023/01/30 06:50:27;;;;;;;4.93;4.40;;;0.00;83.40;;;;;;4958868;29;20458;-71
2023/01/30 06:52:56;;;;;;;5.70;5.13;;;0.00;83.40;;;;;;4958504;29;20503;-71
2023/01/30 06:55:25;;;;;;;4.70;4.30;;;0.20;88.00;;;;;;4959090;29;20952;-70
2023/01/30 06:58:01;;;;;;;5.87;4.60;;;0.40;83.90;;;;;;4959609;29;20454;-70
2023/01/30 07:00:28;;;;;;;5.13;4.63;;;0.40;82.20;;;;;;4958819;29;20455;-71
2023/01/30 07:02:54;;;;;;;5.50;4.53;;;0.20;82.00;;;;;;4958601;29;20505;-71
2023/01/30 07:05:22;;;;;;;4.77;4.03;;;0.10;82.60;;;;;;4958998;29;20448;-70
2023/01/30 07:07:49;;;;;;;5.47;4.97;;;0.10;82.90;;;;;;4959157;29;20529;-70
2023/01/30 07:10:17;;;;;;;6.17;4.90;;;0.10;82.90;;;;;;4959082;29;20940;-71
2023/01/30 07:12:45;;;;;;;7.43;5.13;;;0.10;83.30;;;;;;4960014;29;21055;-71
2023/01/30 07:15:12;;;;;;;6.27;5.67;;;0.20;83.00;;;;;;4960273;29;20443;-71
2023/01/30 07:17:40;;;;;;;6.63;5.27;;;0.20;82.60;;;;;;4959906;29;20451;-70
2023/01/30 07:20:08;;;;;;;5.23;4.73;;;0.20;82.60;;;;;;4957998;28;20541;-71
2023/01/30 07:22:35;;;;;;;5.23;4.73;;;0.20;82.70;;;;;;4958754;29;20491;-71
2023/01/30 07:25:01;;;;;;;5.13;4.63;;;0.30;82.40;;;;;;4958360;29;20452;-70
2023/01/30 07:27:29;;;;;;;5.10;4.60;;;0.50;82.60;;;;;;4957876;29;20455;-70
2023/01/30 07:29:56;;;;;;;5.77;4.90;;;0.90;82.30;;;;;;4957999;29;20514;-69
2023/01/30 07:32:23;;;;;;;6.27;4.73;;;1.30;79.50;;;;;;4957644;29;20471;-70
2023/01/30 07:34:49;;;;;;;4.47;4.03;;;1.30;79.00;;;;;;4959428;29;20871;-69
2023/01/30 07:37:16;;;;;;;6.40;5.00;;;1.20;79.10;;;;;;4960661;29;20451;-69
2023/01/30 07:39:43;;;;;;;5.63;5.10;;;1.20;79.20;;;;;;4959868;29;20487;-69
2023/01/30 07:42:09;;;;;;;5.87;5.10;;;1.10;79.70;;;;;;4959925;29;20860;-69
2023/01/30 07:44:37;;;;;;;4.43;4.00;;;1.00;79.90;;;;;;4960500;29;20498;-67
2023/01/30 07:47:04;;;;;;;4.43;3.70;;;1.10;80.00;;;;;;4962469;29;20455;-70
2023/01/30 07:49:31;;;;;;;4.40;4.00;;;0.90;80.50;;;;;;4968400;29;20510;-69
2023/01/30 07:51:57;;;;;;;6.70;4.60;;;0.90;80.40;;;;;;4958253;29;20463;-69
2023/01/30 07:54:25;;;;;;;5.03;4.53;;;0.80;80.60;;;;;;4957368;29;20510;-69
2023/01/30 07:56:52;;;;;;;4.13;3.77;;;0.90;80.90;;;;;;4959125;29;20545;-69
2023/01/30 07:59:18;;;;;;;5.30;4.20;;;0.90;79.90;;;;;;4957533;29;20451;-69
2023/01/30 08:01:46;;;;;;;4.30;3.83;;;0.80;79.70;;;;;;4957360;29;20506;-69
2023/01/30 08:04:13;;;;;;;5.80;4.17;;;0.60;80.30;;;;;;4957628;29;20451;-69
2023/01/30 08:06:40;;;;;;;4.30;3.90;;;0.80;80.90;;;;;;4957439;29;20452;-69
2023/01/30 08:09:07;;;;;;;4.73;4.27;;;0.80;80.00;;;;;;4957479;29;20455;-69
2023/01/30 08:11:34;;;;;;;4.63;4.20;;;0.80;80.50;;;;;;4957391;29;20829;-69
2023/01/30 08:14:01;;;;;;;4.30;3.90;;;0.90;80.20;;;;;;4957624;29;20458;-69
2023/01/30 08:16:28;;;;;;;4.50;3.93;;;1.10;79.60;;;;;;4957361;29;20455;-69
2023/01/30 08:18:56;;;;;;;4.63;4.10;;;1.20;79.50;;;;;;4960003;29;20443;-69
2023/01/30 08:21:22;;;;;;;5.30;4.80;;;1.30;78.70;;;;;;4958203;29;20471;-69
2023/01/30 08:23:49;;;;;;;4.40;3.90;;;1.20;79.40;;;;;;4957101;29;20921;-69
2023/01/30 08:26:16;;;;;;;5.63;5.03;;;1.30;79.10;;;;;;4957870;29;20451;-69
2023/01/30 08:28:43;;;;;;;4.87;3.97;;;1.20;79.10;;;;;;4958248;29;20447;-69
2023/01/30 08:31:11;;;;;;;4.70;4.03;;;1.20;79.50;;;;;;4957511;28;20533;-70
2023/01/30 08:33:37;;;;;;;4.53;3.90;;;1.20;79.90;;;;;;4958092;29;20501;-69
2023/01/30 08:36:06;;;;;;;4.50;3.90;;;1.40;79.90;;;;;;4958098;29;20455;-69
2023/01/30 08:38:33;;;;;;;4.77;3.83;;;1.20;79.10;;;;;;4957944;29;20812;-70
2023/01/30 08:41:00;;;;;;;5.20;3.20;;;1.20;80.00;;;;;;4957326;29;20526;-69
2023/01/30 08:43:26;;;;;;;4.20;3.70;;;1.10;80.20;;;;;;4956228;29;21067;-69
2023/01/30 08:45:54;;;;;;;5.00;4.50;;;1.20;80.30;;;;;;4956970;29;20455;-69
2023/01/30 08:48:20;;;;;;;4.40;4.00;;;1.20;80.00;;;;;;4956873;29;20492;-69
2023/01/30 08:50:47;;;;;;;4.30;3.87;;;1.20;80.30;;;;;;4957402;29;20530;-69
2023/01/30 08:53:15;;;;;;;5.73;4.50;;;1.40;80.40;;;;;;4957526;29;20447;-70
2023/01/30 08:55:44;;;;;;;5.20;4.73;;;1.40;80.50;;;;;;4957753;29;20443;-69
2023/01/30 08:58:10;;;;;;;4.73;4.07;;;1.50;80.80;;;;;;4957521;29;21011;-70
2023/01/30 09:00:38;;;;;;;4.70;4.20;;;1.60;80.20;;;;;;4957121;29;20452;-69
2023/01/30 09:03:05;;;;;;;3.90;3.47;;;1.50;80.80;;;;;;4957121;29;20495;-69
2023/01/30 09:05:32;;;;;;;3.30;3.00;;;1.60;80.80;;;;;;4957043;29;20519;-70
2023/01/30 09:07:58;;;;;;;6.17;4.10;;;1.60;80.60;;;;;;4956727;29;20476;-70
2023/01/30 09:10:26;;;;;;;4.87;4.30;;;1.70;81.30;;;;;;4957130;29;20463;-71
2023/01/30 09:12:53;;;;;;;4.10;3.53;;;1.90;80.80;;;;;;4956763;29;20443;-71
2023/01/30 09:15:20;;;;;;;4.00;3.60;;;1.90;80.20;;;;;;4957516;29;20451;-71
2023/01/30 09:17:47;;;;;;;4.70;3.90;;;1.80;80.70;;;;;;4957074;29;20509;-71
2023/01/30 09:20:13;;;;;;;4.70;4.17;;;1.80;81.90;;;;;;4956823;29;20482;-71
2023/01/30 09:22:40;;;;;;;4.43;3.67;;;1.90;81.50;;;;;;4956359;29;20490;-70
2023/01/30 09:25:08;;;;;;;6.33;4.40;;;1.90;81.10;;;;;;4957182;29;20459;-72
2023/01/30 09:27:38;;;;;;;4.07;3.67;;;1.90;81.90;;;;;;4956774;29;20451;-72
2023/01/30 09:30:06;;;;;;;5.40;3.50;;;2.00;81.40;;;;;;4955836;29;20491;-70
2023/01/30 09:32:36;;;;;;;3.60;3.20;;;2.30;82.30;;;;;;4958779;29;20471;-70
2023/01/30 09:35:03;;;;;;;4.03;3.20;;;2.60;80.50;;;;;;4957234;29;20530;-72
2023/01/30 09:37:29;;;;;;;4.03;3.30;;;2.80;79.90;;;;;;4956389;28;20827;-71
2023/01/30 09:39:56;;;;;;;3.47;2.50;;;2.80;79.30;;;;;;4956783;29;20794;-70
2023/01/30 09:42:54;;;;;;;3.47;2.83;;;2.80;79.10;;;;;;4957352;28;20516;-70
2023/01/30 09:45:43;;;;;;;4.03;2.63;;;2.80;79.60;;;;;;4960852;29;20870;-70
2023/01/30 09:48:16;;;;;;;3.27;2.77;;;2.70;80.30;;;;;;4962030;29;20440;-71
2023/01/30 09:51:16;;;;;;;2.90;2.20;;;2.70;80.20;;;;;;4961602;29;20471;-71
2023/01/30 09:54:02;;;;;;;3.90;2.83;;;2.80;80.20;;;;;;4957993;29;20517;-70
2023/01/30 09:56:29;;;;;;;3.30;2.50;;;2.90;80.00;;;;;;4960725;29;20486;-71
2023/01/30 09:58:59;;;;;;;3.57;3.23;;;2.80;80.30;;;;;;4960089;29;20471;-70
2023/01/30 10:01:32;;;;;;;3.50;2.60;;;2.90;80.30;;;;;;4960242;28;20494;-70
2023/01/30 10:04:09;;;;;;;3.53;2.90;;;2.80;80.10;;;;;;4960852;29;20470;-71
2023/01/30 10:06:45;;;;;;;2.97;2.10;;;2.70;80.90;;;;;;4961185;29;20443;-71
2023/01/30 10:09:17;;;;;;;3.97;2.90;;;2.80;80.70;;;;;;4962634;29;20860;-71
2023/01/30 10:11:58;;;;;;;3.10;2.63;;;2.90;80.20;;;;;;4962013;29;20474;-69
2023/01/30 10:14:42;;;;;;;3.40;2.77;;;2.80;80.10;;;;;;4969872;23;20494;-70
2023/01/30 10:17:24;;;;;;;3.10;2.60;;;2.90;80.30;;;;;;4961868;29;20435;-69
2023/01/30 10:20:07;;;;;;;3.53;2.60;;;3.00;80.20;;;;;;4961704;29;20510;-67
2023/01/30 10:22:43;;;;;;;3.33;2.67;;;3.20;80.20;;;;;;4962156;29;20471;-68
2023/01/30 10:25:22;;;;;;;3.37;2.47;;;3.30;80.20;;;;;;4962797;29;20483;-69
2023/01/30 10:27:53;;;;;;;3.20;2.20;;;3.50;79.90;;;;;;4963922;29;20442;-69
2023/01/30 10:30:22;;;;;;;3.73;2.73;;;3.60;79.60;;;;;;4963279;29;20439;-68
2023/01/30 10:32:53;;;;;;;3.30;2.43;;;3.80;79.10;;;;;;4964280;29;20455;-69
2023/01/30 10:35:23;;;;;;;2.60;2.17;;;3.70;79.20;;;;;;4965210;29;20439;-67
2023/01/30 10:37:58;;;;;;;3.67;2.23;;;3.70;79.50;;;;;;4963257;29;20490;-69
2023/01/30 10:40:30;;;;;;;3.53;1.97;;;3.80;79.60;;;;;;4961283;29;20443;-68
2023/01/30 10:43:06;;;;;;;3.00;2.30;;;3.70;80.00;;;;;;4964495;29;20475;-68
2023/01/30 10:45:43;;;;;;;2.60;1.80;;;3.80;80.20;;;;;;4962839;29;20439;-69
2023/01/30 10:48:46;;;;;;;2.57;1.77;;;3.90;80.10;;;;;;4962798;29;20439;-68
2023/01/30 10:51:25;;;;;;;2.70;1.83;;;3.90;80.30;;;;;;4961495;29;20471;-68
2023/01/30 10:53:57;;;;;;;2.27;1.63;;;3.90;80.60;;;;;;4962212;29;20462;-68
2023/01/30 10:56:32;;;;;;;2.63;1.80;;;3.80;80.70;;;;;;4961318;29;20432;-70
2023/01/30 10:59:09;;;;;;;2.50;1.60;;;3.90;81.10;;;;;;4962208;29;20435;-68
2023/01/30 11:01:42;;;;;;;2.60;1.80;;;4.00;80.90;;;;;;4961369;29;20829;-67
2023/01/30 11:04:17;;;;;;;2.63;1.83;;;3.90;81.10;;;;;;4964803;29;20491;-68
2023/01/30 11:06:45;;;;;;;2.87;1.97;;;4.00;81.50;;;;;;4961096;29;20435;-68
2023/01/30 11:09:11;;;;;;;2.40;1.93;;;3.80;81.70;;;;;;4961154;29;20482;-68
2023/01/30 11:11:48;;;;;;;2.70;1.93;;;3.70;82.10;;;;;;4960245;29;20459;-68
2023/01/30 11:14:15;;;;;;;2.43;1.73;;;3.60;82.30;;;;;;4958941;28;20487;-68
2023/01/30 11:16:47;;;;;;;2.60;1.60;;;3.70;82.50;;;;;;4960505;29;20443;-68
2023/01/30 11:19:16;;;;;;;2.57;2.07;;;3.60;82.50;;;;;;4960014;29;20447;-68
2023/01/30 11:21:50;;;;;;;3.00;1.70;;;3.60;82.50;;;;;;4959699;29;20467;-68
2023/01/30 11:24:19;;;;;;;2.70;1.80;;;3.60;82.60;;;;;;4959463;29;20592;-68
2023/01/30 11:26:46;;;;;;;2.97;1.90;;;3.60;82.70;;;;;;4959099;29;20485;-69
2023/01/30 11:29:25;;;;;;;4.40;2.37;;;3.60;82.60;;;;;;4958136;29;20484;-69
2023/01/30 11:31:53;;;;;;;2.37;1.83;;;3.60;83.20;;;;;;4958098;28;20435;-69
2023/01/30 11:34:22;;;;;;;2.77;1.90;;;3.60;82.80;;;;;;4957661;29;20467;-69
2023/01/30 11:36:50;;;;;;;2.87;2.17;;;3.60;83.00;;;;;;4957355;29;20807;-69
2023/01/30 11:39:23;;;;;;;2.70;1.97;;;3.50;82.80;;;;;;4958619;29;20454;-70
2023/01/30 11:42:03;;;;;;;3.57;2.30;;;3.50;82.90;;;;;;4959198;29;20431;-68
2023/01/30 11:44:32;;;;;;;7.33;2.57;;;3.40;83.60;;;;;;4957856;29;20514;-67
2023/01/30 11:47:03;;;;;;;2.80;2.00;;;3.60;85.60;;;;;;4958356;29;20964;-69
2023/01/30 11:49:35;;;;;;;2.80;1.80;;;3.60;82.90;;;;;;4958143;29;20802;-69
2023/01/30 11:52:03;;;;;;;2.80;1.83;;;3.60;83.30;;;;;;4957964;29;20851;-69
2023/01/30 11:54:34;;;;;;;3.07;2.10;;;3.70;82.90;;;;;;4958188;29;20471;-68
2023/01/30 11:57:03;;;;;;;2.97;2.00;;;3.80;83.00;;;;;;4957773;29;20550;-69
2023/01/30 11:59:35;;;;;;;2.50;1.93;;;3.80;82.80;;;;;;4958340;29;20878;-69
2023/01/30 12:02:13;;;;;;;3.90;2.40;;;3.90;82.90;;;;;;4959442;29;20441;-70
2023/01/30 12:04:43;;;;;;;3.67;2.37;;;3.70;83.40;;;;;;4957307;29;20996;-68
2023/01/30 12:07:20;;;;;;;3.73;1.97;;;3.70;84.20;;;;;;4958592;28;20865;-68
2023/01/30 12:09:49;;;;;;;3.67;2.07;;;3.50;84.20;;;;;;4958220;29;20435;-68
2023/01/30 12:12:31;;;;;;;3.20;2.23;;;3.20;85.70;;;;;;4963007;28;20455;-72
2023/01/30 12:15:20;;;;;;;2.63;1.90;;;3.20;86.70;;;;;;4965261;28;20493;-71
2023/01/30 12:17:56;;;;;;;2.50;1.70;;;3.30;86.30;;;;;;4964593;29;20449;-70
2023/01/30 12:20:32;;;;;;;2.80;2.20;;;3.10;87.00;;;;;;4964651;29;20463;-70
2023/01/30 12:23:10;;;;;;;2.67;2.00;;;3.10;87.40;;;;;;4963275;29;20502;-71
2023/01/30 12:25:42;;;;;;;2.50;2.13;;;3.00;87.70;;;;;;4962585;28;20470;-68
2023/01/30 12:28:18;;;;;;;2.93;2.30;;;2.90;88.00;;;;;;4962109;29;20444;-68
2023/01/30 12:30:50;;;;;;;3.20;2.70;;;3.10;87.80;;;;;;4960611;29;20435;-68
2023/01/30 12:33:18;;;;;;;2.90;2.33;;;3.20;87.70;;;;;;4957045;29;20467;-68
2023/01/30 12:35:55;;;;;;;2.30;1.90;;;3.20;87.40;;;;;;4957239;29;20463;-68
2023/01/30 12:38:35;;;;;;;3.50;2.13;;;3.20;87.60;;;;;;4957505;29;20439;-68
2023/01/30 12:41:14;;;;;;;2.70;1.87;;;3.20;88.00;;;;;;4957699;29;20443;-68
2023/01/30 12:44:03;;;;;;;3.20;2.57;;;3.40;87.40;;;;;;4957398;28;20574;-68
2023/01/30 12:46:48;;;;;;;3.10;2.40;;;3.20;87.50;;;;;;4955098;29;20454;-68
2023/01/30 12:49:31;;;;;;;3.17;2.27;;;3.10;88.30;;;;;;4957403;29;20442;-68
2023/01/30 12:52:26;;;;;;;2.80;2.20;;;3.20;88.30;;;;;;4957280;29;20438;-68
2023/01/30 12:55:00;;;;;;;2.80;2.17;;;3.10;88.30;;;;;;4949979;29;20481;-68
2023/01/30 12:57:32;;;;;;;2.73;2.33;;;3.20;88.20;;;;;;4956795;29;20490;-67
2023/01/30 13:00:14;;;;;;;3.83;2.17;;;3.40;87.80;;;;;;4956879;29;20502;-68
2023/01/30 13:02:57;;;;;;;3.00;2.10;;;3.50;87.70;;;;;;4956204;29;20510;-68
2023/01/30 13:05:37;;;;;;;3.00;2.27;;;3.60;87.20;;;;;;4956664;28;20440;-68
2023/01/30 13:08:25;;;;;;;3.50;2.73;;;3.60;87.10;;;;;;4956424;29;20530;-67
2023/01/30 13:11:03;;;;;;;3.10;2.63;;;3.70;87.10;;;;;;4957444;29;20514;-68
2023/01/30 13:13:41;;;;;;;3.90;2.90;;;3.80;86.80;;;;;;4956215;29;20495;-68
2023/01/30 13:16:18;;;;;;;3.00;2.17;;;3.70;86.90;;;;;;4956320;29;20440;-68
2023/01/30 13:18:48;;;;;;;2.80;2.17;;;3.40;87.70;;;;;;4955394;28;20494;-68
2023/01/30 13:21:21;;;;;;;3.47;3.10;;;3.40;88.50;;;;;;4956225;29;20891;-68
2023/01/30 13:24:01;;;;;;;3.23;2.43;;;3.20;89.00;;;;;;4956122;29;20490;-68
2023/01/30 13:26:33;;;;;;;3.80;2.67;;;3.20;89.30;;;;;;4957811;29;20442;-69
2023/01/30 13:29:03;;;;;;;3.30;2.23;;;3.10;89.50;;;;;;4957591;29;20493;-68
2023/01/30 13:31:32;;;;;;;3.43;2.87;;;3.20;89.70;;;;;;4958821;29;20486;-69
2023/01/30 13:34:06;;;;;;;3.97;2.57;;;3.30;90.60;;;;;;4957642;29;20466;-67
2023/01/30 13:36:42;;;;;;;3.40;2.83;;;3.20;90.30;;;;;;4958480;29;20445;-69
2023/01/30 13:39:15;;;;;;;3.67;2.77;;;3.20;89.80;;;;;;4959031;29;20440;-69
2023/01/30 13:41:46;;;;;;;3.37;2.37;;;3.20;89.90;;;;;;4958004;29;20443;-68
2023/01/30 13:44:18;;;;;;;3.40;3.10;;;3.30;90.10;;;;;;4957584;29;20491;-69
2023/01/30 13:46:46;;;;;;;3.27;2.70;;;3.30;89.90;;;;;;4958062;29;20454;-69
2023/01/30 13:49:20;;;;;;;3.17;2.57;;;3.20;90.10;;;;;;4957947;29;20451;-71
2023/01/30 13:51:52;;;;;;;4.07;3.00;;;3.10;90.40;;;;;;4958138;29;20450;-69
2023/01/30 13:54:39;;;;;;;3.80;2.90;;;3.00;90.80;;;;;;4958350;29;20483;-70
2023/01/30 13:57:16;;;;;;;4.00;3.00;;;3.00;91.20;;;;;;4958740;29;20439;-70
2023/01/30 14:00:09;;;;;;;3.73;2.70;;;3.10;91.30;;;;;;4959026;29;20518;-69
2023/01/30 14:02:36;;;;;;;3.70;3.30;;;3.30;91.10;;;;;;4958031;29;20427;-68
2023/01/30 14:05:04;;;;;;;3.83;2.77;;;3.30;90.50;;;;;;4958138;29;20499;-69
2023/01/30 14:07:39;;;;;;;3.00;2.70;;;3.40;90.50;;;;;;4958400;29;20463;-70
2023/01/30 14:10:13;;;;;;;3.00;2.43;;;3.50;90.00;;;;;;4957641;29;20442;-68
2023/01/30 14:12:42;;;;;;;3.50;3.10;;;3.50;90.00;;;;;;4957996;29;20443;-68
2023/01/30 14:15:27;;;;;;;4.13;3.20;;;3.50;89.90;;;;;;4956200;28;20999;-68
2023/01/30 14:18:04;;;;;;;3.70;2.90;;;3.60;89.80;;;;;;4959627;29;20446;-69
2023/01/30 14:20:32;;;;;;;4.40;2.80;;;3.70;89.70;;;;;;4959168;29;20432;-69
2023/01/30 14:23:03;;;;;;;3.33;2.70;;;3.60;89.80;;;;;;4958932;29;20462;-69
2023/01/30 14:25:46;;;;;;;3.00;2.60;;;3.40;89.90;;;;;;4957758;28;20472;-68
2023/01/30 14:28:49;;;;;;;3.07;2.70;;;3.40;90.50;;;;;;4956884;29;20431;-69
2023/01/30 14:31:50;;;;;;;3.07;2.47;;;3.40;91.00;;;;;;4961943;29;20462;-75
2023/01/30 14:34:48;;;;;;;3.33;2.30;;;3.50;90.60;;;;;;4962425;29;20518;-69
2023/01/30 14:37:53;;;;;;;2.40;1.80;;;3.50;90.60;;;;;;4962097;29;20522;-69
2023/01/30 14:41:09;;;;;;;2.53;2.10;;;3.60;90.40;;;;;;4940251;29;20843;-70
2023/01/30 14:43:39;;;;;;;4.27;2.63;;;3.70;90.00;;;;;;4961637;29;20486;-69
2023/01/30 14:46:11;;;;;;;2.63;2.27;;;3.80;89.60;;;;;;4962110;28;20458;-69
2023/01/30 14:48:42;;;;;;;3.10;2.20;;;3.80;89.50;;;;;;4961843;28;20446;-67
2023/01/30 14:51:21;;;;;;;3.13;2.53;;;3.90;89.80;;;;;;4961588;29;20871;-69
2023/01/30 14:53:52;;;;;;;2.80;2.23;;;3.80;89.10;;;;;;4961661;29;20467;-70
2023/01/30 14:56:39;;;;;;;3.03;2.40;;;3.70;89.80;;;;;;4962976;29;20795;-68
2023/01/30 14:59:09;;;;;;;2.97;2.43;;;3.80;89.70;;;;;;4962625;29;20451;-68
2023/01/30 15:02:05;;;;;;;2.87;2.50;;;3.80;89.80;;;;;;4961454;29;20436;-67
2023/01/30 15:04:37;;;;;;;3.43;2.27;;;3.80;89.80;;;;;;4918240;29;20499;-69
2023/01/30 15:07:10;;;;;;;3.30;2.50;;;3.50;90.60;;;;;;4962500;29;20442;-70
2023/01/30 15:09:40;;;;;;;2.80;2.33;;;3.50;91.10;;;;;;4963039;29;20432;-69
2023/01/30 15:12:35;;;;;;;3.37;2.13;;;3.50;91.10;;;;;;4963892;29;20435;-69
2023/01/30 15:15:13;;;;;;;2.90;2.40;;;3.40;91.60;;;;;;4963193;28;20514;-68
2023/01/30 15:17:52;;;;;;;2.60;1.97;;;3.30;92.00;;;;;;4961971;29;20807;-70
2023/01/30 15:20:27;;;;;;;3.57;2.67;;;3.50;92.20;;;;;;4961931;29;20431;-69
2023/01/30 15:23:17;;;;;;;3.70;2.07;;;3.40;91.60;;;;;;4961423;29;20905;-68
2023/01/30 15:26:01;;;;;;;2.90;2.30;;;3.50;91.90;;;;;;4962371;29;20475;-68
2023/01/30 15:28:39;;;;;;;3.67;2.30;;;3.40;91.60;;;;;;4962357;29;20851;-69
2023/01/30 15:31:19;;;;;;;3.43;2.60;;;3.50;91.70;;;;;;4963291;29;20420;-69
2023/01/30 15:33:47;;;;;;;4.13;2.93;;;3.60;91.40;;;;;;4961560;29;20471;-68
2023/01/30 15:36:24;;;;;;;3.57;2.33;;;3.70;91.20;;;;;;4962577;29;20447;-68
2023/01/30 15:38:59;;;;;;;2.90;1.87;;;3.80;90.60;;;;;;4963749;29;20435;-70
2023/01/30 15:41:26;;;;;;;2.47;1.77;;;3.80;90.20;;;;;;4961599;28;20475;-69
2023/01/30 15:44:21;;;;;;;2.90;1.90;;;3.70;90.00;;;;;;4963461;29;20553;-68
2023/01/30 15:46:58;;;;;;;3.10;2.40;;;3.70;90.00;;;;;;4962654;29;20939;-69
2023/01/30 15:49:51;;;;;;;2.50;2.07;;;3.70;89.80;;;;;;4961656;29;20446;-70
2023/01/30 15:52:20;;;;;;;4.20;3.00;;;3.70;89.80;;;;;;4963720;29;20428;-68
2023/01/30 15:54:50;;;;;;;2.63;1.90;;;3.70;89.90;;;;;;4963534;29;20497;-69
2023/01/30 15:57:22;;;;;;;2.90;2.27;;;3.60;89.70;;;;;;4964052;29;20937;-68
2023/01/30 15:59:53;;;;;;;3.40;2.00;;;3.70;89.90;;;;;;4964122;29;20439;-70
2023/01/30 16:02:26;;;;;;;3.00;2.20;;;3.80;89.40;;;;;;4963365;29;20455;-70
2023/01/30 16:05:12;;;;;;;2.63;2.43;;;3.90;89.50;;;;;;4963415;29;20483;-70
2023/01/30 16:07:39;;;;;;;2.70;1.73;;;4.00;88.80;;;;;;4959075;29;20448;-68
2023/01/30 16:10:13;;;;;;;4.50;3.00;;;3.90;88.40;;;;;;4958396;29;20458;-69
2023/01/30 16:12:40;;;;;;;2.83;2.30;;;3.90;88.90;;;;;;4958241;29;20534;-68
2023/01/30 16:15:14;;;;;;;3.90;2.43;;;3.80;88.80;;;;;;4997391;23;20498;-70
2023/01/30 16:17:42;;;;;;;3.20;2.60;;;3.80;88.90;;;;;;4958851;28;20459;-70
2023/01/30 16:20:13;;;;;;;3.90;2.53;;;3.80;89.00;;;;;;4958796;29;20450;-70
2023/01/30 16:22:44;;;;;;;3.10;2.43;;;3.90;88.60;;;;;;4958173;29;20431;-69
2023/01/30 16:25:17;;;;;;;3.80;2.33;;;3.90;88.60;;;;;;4956795;29;20499;-70
2023/01/30 16:27:49;;;;;;;3.40;2.67;;;3.90;88.80;;;;;;4958357;29;20850;-69
2023/01/30 16:30:23;;;;;;;4.10;2.70;;;4.00;89.00;;;;;;4958653;29;20443;-69
2023/01/30 16:32:52;;;;;;;3.33;2.87;;;4.00;88.50;;;;;;4958681;29;20419;-70
2023/01/30 16:35:33;;;;;;;2.80;2.20;;;4.00;88.50;;;;;;4958463;29;20471;-69
2023/01/30 16:38:02;;;;;;;3.00;2.50;;;3.90;88.50;;;;;;4958370;29;20427;-69
2023/01/30 16:40:31;;;;;;;3.30;2.70;;;3.80;88.80;;;;;;4959315;29;20447;-69
2023/01/30 16:43:00;;;;;;;3.00;2.50;;;3.80;89.00;;;;;;4957951;29;20454;-70
2023/01/30 16:46:26;;;;;;;3.23;2.50;;;3.90;88.90;;;;;;4957506;29;20491;-70
2023/01/30 16:49:01;;;;;;;2.40;2.10;;;3.90;88.80;;;;;;4958558;28;20543;-69
2023/01/30 16:51:27;;;;;;;2.63;2.27;;;3.90;88.60;;;;;;4958486;29;20780;-69
2023/01/30 16:54:02;;;;;;;3.60;3.07;;;4.00;88.50;;;;;;4958125;28;20481;-70
2023/01/30 16:56:30;;;;;;;2.93;2.20;;;3.90;88.30;;;;;;4959076;29;20791;-70
2023/01/30 16:59:00;;;;;;;4.10;3.00;;;3.80;88.60;;;;;;4958962;29;20479;-69
2023/01/30 17:01:39;;;;;;;3.10;2.30;;;3.70;89.10;;;;;;4959818;29;20949;-69
2023/01/30 17:04:17;;;;;;;2.80;2.10;;;3.60;89.60;;;;;;4958185;29;20475;-69
2023/01/30 17:06:49;;;;;;;2.93;2.60;;;3.70;89.90;;;;;;4958094;29;20435;-71
2023/01/30 17:09:48;;;;;;;2.57;2.37;;;3.70;89.50;;;;;;4958393;29;20435;-72
2023/01/30 17:12:38;;;;;;;3.73;2.50;;;3.60;89.80;;;;;;4958630;29;20439;-72
2023/01/30 17:15:31;;;;;;;3.57;2.73;;;3.60;89.90;;;;;;4957450;28;21000;-71
2023/01/30 17:17:59;;;;;;;3.40;2.83;;;3.60;89.70;;;;;;4958605;29;20454;-72
2023/01/30 17:20:36;;;;;;;4.00;2.73;;;3.70;89.60;;;;;;4956949;29;20451;-71
2023/01/30 17:23:07;;;;;;;2.43;1.80;;;3.60;89.30;;;;;;4956423;29;20513;-72